sensor_id;sensor_type;location;lat;lon;timestamp;pressure;altitude;pressure_sealevel;temperature;humidity
4199;BME280;2113;50.946;14.610;2023-08-31T00:00:26;96316.41;;;9.52;86.15
4199;BME280;2113;50.946;14.610;2023-08-31T00:02:55;96320.03;;;9.51;85.82
4199;BME280;2113;50.946;14.610;2023-08-31T00:05:25;96312.97;;;9.45;86.19
4199;BME280;2113;50.946;14.610;2023-08-31T00:07:55;96327.75;;;9.46;86.23
4199;BME280;2113;50.946;14.610;2023-08-31T00:10:24;96322.84;;;9.56;86.31
4199;BME280;2113;50.946;14.610;2023-08-31T00:12:53;96318.41;;;9.50;86.31
4199;BME280;2113;50.946;14.610;2023-08-31T00:15:23;96324.91;;;9.47;86.61
4199;BME280;2113;50.946;14.610;2023-08-31T00:17:52;96332.53;;;9.62;86.65
4199;BME280;2113;50.946;14.610;2023-08-31T00:20:20;96331.16;;;9.59;86.49
4199;BME280;2113;50.946;14.610;2023-08-31T00:22:49;96326.66;;;9.67;86.62
4199;BME280;2113;50.946;14.610;2023-08-31T00:25:18;96326.50;;;9.55;86.72
4199;BME280;2113;50.946;14.610;2023-08-31T00:27:46;96326.03;;;9.64;86.62
4199;BME280;2113;50.946;14.610;2023-08-31T00:30:15;96327.53;;;9.54;86.80
4199;BME280;2113;50.946;14.610;2023-08-31T00:32:46;96316.59;;;9.44;86.88
4199;BME280;2113;50.946;14.610;2023-08-31T00:35:15;96320.88;;;9.45;87.18
4199;BME280;2113;50.946;14.610;2023-08-31T00:37:44;96313.97;;;9.44;87.01
4199;BME280;2113;50.946;14.610;2023-08-31T00:40:13;96319.66;;;9.41;86.65
4199;BME280;2113;50.946;14.610;2023-08-31T00:42:42;96322.91;;;9.29;86.23
4199;BME280;2113;50.946;14.610;2023-08-31T00:45:11;96323.38;;;9.13;86.59
4199;BME280;2113;50.946;14.610;2023-08-31T00:47:41;96324.78;;;9.09;86.66
4199;BME280;2113;50.946;14.610;2023-08-31T00:50:11;96329.44;;;9.07;87.12
4199;BME280;2113;50.946;14.610;2023-08-31T00:52:40;96320.75;;;9.13;87.34
4199;BME280;2113;50.946;14.610;2023-08-31T00:55:11;96326.75;;;9.33;87.60
4199;BME280;2113;50.946;14.610;2023-08-31T00:57:40;96316.00;;;9.48;87.84
4199;BME280;2113;50.946;14.610;2023-08-31T01:00:10;96319.19;;;9.57;87.70
4199;BME280;2113;50.946;14.610;2023-08-31T01:02:48;96321.97;;;9.75;87.34
4199;BME280;2113;50.946;14.610;2023-08-31T01:05:31;96320.91;;;9.83;87.23
4199;BME280;2113;50.946;14.610;2023-08-31T01:08:10;96321.66;;;9.97;87.25
4199;BME280;2113;50.946;14.610;2023-08-31T01:10:49;96322.63;;;10.09;86.92
4199;BME280;2113;50.946;14.610;2023-08-31T01:13:24;96328.66;;;10.16;87.03
4199;BME280;2113;50.946;14.610;2023-08-31T01:15:56;96318.91;;;10.23;86.64
4199;BME280;2113;50.946;14.610;2023-08-31T01:18:31;96313.56;;;10.36;86.57
4199;BME280;2113;50.946;14.610;2023-08-31T01:21:12;96307.84;;;10.39;86.19
4199;BME280;2113;50.946;14.610;2023-08-31T01:23:52;96311.50;;;10.38;86.39
4199;BME280;2113;50.946;14.610;2023-08-31T01:26:21;96318.78;;;10.43;86.26
4199;BME280;2113;50.946;14.610;2023-08-31T01:28:51;96313.44;;;10.50;86.46
4199;BME280;2113;50.946;14.610;2023-08-31T01:31:20;96322.06;;;10.63;86.16
4199;BME280;2113;50.946;14.610;2023-08-31T01:34:23;96328.00;;;10.59;86.34
4199;BME280;2113;50.946;14.610;2023-08-31T01:38:27;96316.97;;;10.68;85.86
4199;BME280;2113;50.946;14.610;2023-08-31T01:41:05;96325.50;;;10.64;86.05
4199;BME280;2113;50.946;14.610;2023-08-31T01:43:36;96328.38;;;10.62;85.78
4199;BME280;2113;50.946;14.610;2023-08-31T01:46:07;96329.69;;;10.47;86.18
4199;BME280;2113;50.946;14.610;2023-08-31T01:48:39;96330.91;;;10.51;86.37
4199;BME280;2113;50.946;14.610;2023-08-31T01:51:11;96329.47;;;10.48;86.32
4199;BME280;2113;50.946;14.610;2023-08-31T01:53:42;96326.22;;;10.53;86.44
4199;BME280;2113;50.946;14.610;2023-08-31T01:56:13;96327.88;;;10.47;86.46
4199;BME280;2113;50.946;14.610;2023-08-31T01:58:42;96323.00;;;10.51;86.12
4199;BME280;2113;50.946;14.610;2023-08-31T02:01:10;96326.88;;;10.41;86.14
4199;BME280;2113;50.946;14.610;2023-08-31T02:03:39;96327.19;;;10.27;85.94
4199;BME280;2113;50.946;14.610;2023-08-31T02:06:08;96329.59;;;10.28;86.39
4199;BME280;2113;50.946;14.610;2023-08-31T02:08:39;96323.75;;;10.26;86.45
4199;BME280;2113;50.946;14.610;2023-08-31T02:11:14;96333.25;;;10.27;85.98
4199;BME280;2113;50.946;14.610;2023-08-31T02:13:43;96338.19;;;10.17;86.00
4199;BME280;2113;50.946;14.610;2023-08-31T02:16:12;96332.38;;;10.02;86.15
4199;BME280;2113;50.946;14.610;2023-08-31T02:18:41;96331.22;;;9.91;86.40
4199;BME280;2113;50.946;14.610;2023-08-31T02:21:10;96322.28;;;9.92;86.96
4199;BME280;2113;50.946;14.610;2023-08-31T02:23:40;96322.31;;;9.85;87.21
4199;BME280;2113;50.946;14.610;2023-08-31T02:26:10;96325.97;;;9.84;86.78
4199;BME280;2113;50.946;14.610;2023-08-31T02:28:41;96324.63;;;9.69;86.78
4199;BME280;2113;50.946;14.610;2023-08-31T02:31:10;96331.75;;;9.61;86.94
4199;BME280;2113;50.946;14.610;2023-08-31T02:33:39;96339.25;;;9.51;87.04
4199;BME280;2113;50.946;14.610;2023-08-31T02:36:08;96335.66;;;9.46;86.85
4199;BME280;2113;50.946;14.610;2023-08-31T02:38:36;96334.19;;;9.50;87.02
4199;BME280;2113;50.946;14.610;2023-08-31T02:41:06;96343.91;;;9.56;87.13
4199;BME280;2113;50.946;14.610;2023-08-31T02:43:36;96348.78;;;9.52;87.35
4199;BME280;2113;50.946;14.610;2023-08-31T02:46:06;96337.03;;;9.55;87.50
4199;BME280;2113;50.946;14.610;2023-08-31T02:48:35;96346.34;;;9.51;87.57
4199;BME280;2113;50.946;14.610;2023-08-31T02:51:04;96344.16;;;9.41;87.44
4199;BME280;2113;50.946;14.610;2023-08-31T02:53:32;96353.09;;;9.27;87.18
4199;BME280;2113;50.946;14.610;2023-08-31T02:56:01;96339.13;;;9.26;87.48
4199;BME280;2113;50.946;14.610;2023-08-31T02:58:30;96334.69;;;9.14;87.49
4199;BME280;2113;50.946;14.610;2023-08-31T03:01:11;96342.78;;;9.19;87.50
4199;BME280;2113;50.946;14.610;2023-08-31T03:03:44;96322.13;;;9.22;87.40
4199;BME280;2113;50.946;14.610;2023-08-31T03:06:13;96331.03;;;9.15;87.39
4199;BME280;2113;50.946;14.610;2023-08-31T03:08:42;96329.19;;;9.28;87.59
4199;BME280;2113;50.946;14.610;2023-08-31T03:11:11;96336.50;;;9.26;87.43
4199;BME280;2113;50.946;14.610;2023-08-31T03:13:41;96350.88;;;9.30;87.57
4199;BME280;2113;50.946;14.610;2023-08-31T03:16:13;96331.00;;;9.34;87.80
4199;BME280;2113;50.946;14.610;2023-08-31T03:18:41;96336.56;;;9.71;88.12
4199;BME280;2113;50.946;14.610;2023-08-31T03:21:10;96337.69;;;9.95;88.59
4199;BME280;2113;50.946;14.610;2023-08-31T03:23:39;96327.81;;;10.22;88.57
4199;BME280;2113;50.946;14.610;2023-08-31T03:26:07;96333.38;;;10.45;88.09
4199;BME280;2113;50.946;14.610;2023-08-31T03:28:36;96333.63;;;10.62;87.50
4199;BME280;2113;50.946;14.610;2023-08-31T03:31:07;96344.56;;;10.66;86.53
4199;BME280;2113;50.946;14.610;2023-08-31T03:33:37;96344.84;;;10.58;86.63
4199;BME280;2113;50.946;14.610;2023-08-31T03:36:07;96346.59;;;10.64;86.73
4199;BME280;2113;50.946;14.610;2023-08-31T03:38:36;96340.91;;;10.67;86.91
4199;BME280;2113;50.946;14.610;2023-08-31T03:41:05;96349.75;;;10.79;87.03
4199;BME280;2113;50.946;14.610;2023-08-31T03:43:34;96355.22;;;10.78;86.85
4199;BME280;2113;50.946;14.610;2023-08-31T03:46:03;96358.31;;;10.75;86.77
4199;BME280;2113;50.946;14.610;2023-08-31T03:48:31;96358.66;;;10.78;87.18
4199;BME280;2113;50.946;14.610;2023-08-31T03:51:01;96377.31;;;10.83;86.96
4199;BME280;2113;50.946;14.610;2023-08-31T03:53:30;96368.81;;;10.81;86.98
4199;BME280;2113;50.946;14.610;2023-08-31T03:55:59;96367.59;;;10.77;86.94
4199;BME280;2113;50.946;14.610;2023-08-31T03:58:29;96367.59;;;10.77;87.09
4199;BME280;2113;50.946;14.610;2023-08-31T04:00:58;96365.31;;;10.87;86.84
4199;BME280;2113;50.946;14.610;2023-08-31T04:03:27;96380.13;;;10.88;87.21
4199;BME280;2113;50.946;14.610;2023-08-31T04:05:56;96384.81;;;10.86;87.30
4199;BME280;2113;50.946;14.610;2023-08-31T04:08:26;96388.63;;;10.90;87.55
4199;BME280;2113;50.946;14.610;2023-08-31T04:10:54;96377.25;;;10.90;87.17
4199;BME280;2113;50.946;14.610;2023-08-31T04:13:23;96386.59;;;10.92;87.67
4199;BME280;2113;50.946;14.610;2023-08-31T04:15:53;96378.41;;;11.00;87.70
4199;BME280;2113;50.946;14.610;2023-08-31T04:18:22;96393.63;;;10.98;87.49
4199;BME280;2113;50.946;14.610;2023-08-31T04:20:52;96393.03;;;10.96;87.58
4199;BME280;2113;50.946;14.610;2023-08-31T04:23:21;96396.22;;;11.05;87.45
4199;BME280;2113;50.946;14.610;2023-08-31T04:25:51;96389.09;;;11.06;87.68
4199;BME280;2113;50.946;14.610;2023-08-31T04:28:20;96383.19;;;11.10;87.54
4199;BME280;2113;50.946;14.610;2023-08-31T04:30:49;96375.03;;;11.12;87.01
4199;BME280;2113;50.946;14.610;2023-08-31T04:33:20;96379.16;;;11.08;86.96
4199;BME280;2113;50.946;14.610;2023-08-31T04:35:49;96388.22;;;11.12;86.99
4199;BME280;2113;50.946;14.610;2023-08-31T04:38:18;96394.97;;;11.08;86.61
4199;BME280;2113;50.946;14.610;2023-08-31T04:40:46;96401.88;;;11.09;87.01
4199;BME280;2113;50.946;14.610;2023-08-31T04:43:16;96404.69;;;11.14;87.03
4199;BME280;2113;50.946;14.610;2023-08-31T04:45:45;96405.84;;;11.18;87.57
4199;BME280;2113;50.946;14.610;2023-08-31T04:48:14;96406.81;;;11.23;87.31
4199;BME280;2113;50.946;14.610;2023-08-31T04:50:42;96400.91;;;11.28;86.48
4199;BME280;2113;50.946;14.610;2023-08-31T04:53:11;96407.22;;;11.45;85.79
4199;BME280;2113;50.946;14.610;2023-08-31T04:55:39;96416.75;;;11.46;85.69
4199;BME280;2113;50.946;14.610;2023-08-31T04:58:08;96442.41;;;11.39;85.91
4199;BME280;2113;50.946;14.610;2023-08-31T05:00:38;96448.44;;;11.28;86.34
4199;BME280;2113;50.946;14.610;2023-08-31T05:03:07;96449.88;;;11.24;86.74
4199;BME280;2113;50.946;14.610;2023-08-31T05:05:36;96456.75;;;11.25;86.82
4199;BME280;2113;50.946;14.610;2023-08-31T05:08:05;96450.91;;;11.23;86.88
4199;BME280;2113;50.946;14.610;2023-08-31T05:10:34;96457.78;;;11.24;86.40
4199;BME280;2113;50.946;14.610;2023-08-31T05:13:02;96461.44;;;11.23;86.17
4199;BME280;2113;50.946;14.610;2023-08-31T05:15:31;96444.13;;;11.27;86.37
4199;BME280;2113;50.946;14.610;2023-08-31T05:18:02;96443.16;;;11.28;86.09
4199;BME280;2113;50.946;14.610;2023-08-31T05:20:31;96443.91;;;11.35;85.80
4199;BME280;2113;50.946;14.610;2023-08-31T05:22:59;96448.28;;;11.41;85.95
4199;BME280;2113;50.946;14.610;2023-08-31T05:25:28;96447.94;;;11.38;84.91
4199;BME280;2113;50.946;14.610;2023-08-31T05:27:56;96443.84;;;11.42;84.60
4199;BME280;2113;50.946;14.610;2023-08-31T05:30:25;96455.63;;;11.39;84.07
4199;BME280;2113;50.946;14.610;2023-08-31T05:32:54;96464.56;;;11.38;83.68
4199;BME280;2113;50.946;14.610;2023-08-31T05:35:24;96466.63;;;11.36;83.91
4199;BME280;2113;50.946;14.610;2023-08-31T05:37:53;96475.56;;;11.35;83.96
4199;BME280;2113;50.946;14.610;2023-08-31T05:40:22;96476.75;;;11.39;84.28
4199;BME280;2113;50.946;14.610;2023-08-31T05:42:50;96471.47;;;11.39;83.87
4199;BME280;2113;50.946;14.610;2023-08-31T05:45:19;96467.00;;;11.40;83.72
4199;BME280;2113;50.946;14.610;2023-08-31T05:47:47;96463.72;;;11.44;83.39
4199;BME280;2113;50.946;14.610;2023-08-31T05:50:16;96459.81;;;11.47;83.29
4199;BME280;2113;50.946;14.610;2023-08-31T05:52:46;96470.56;;;11.52;83.04
4199;BME280;2113;50.946;14.610;2023-08-31T05:55:14;96475.25;;;11.50;83.71
4199;BME280;2113;50.946;14.610;2023-08-31T05:57:43;96490.28;;;11.49;83.27
4199;BME280;2113;50.946;14.610;2023-08-31T06:00:12;96488.66;;;11.48;83.32
4199;BME280;2113;50.946;14.610;2023-08-31T06:02:41;96499.06;;;11.43;83.78
4199;BME280;2113;50.946;14.610;2023-08-31T06:05:12;96495.81;;;11.41;83.59
4199;BME280;2113;50.946;14.610;2023-08-31T06:07:43;96493.63;;;11.38;84.25
4199;BME280;2113;50.946;14.610;2023-08-31T06:10:13;96491.41;;;11.35;83.91
4199;BME280;2113;50.946;14.610;2023-08-31T06:12:42;96491.03;;;11.32;83.62
4199;BME280;2113;50.946;14.610;2023-08-31T06:15:10;96495.28;;;11.33;84.16
4199;BME280;2113;50.946;14.610;2023-08-31T06:17:39;96495.81;;;11.41;83.62
4199;BME280;2113;50.946;14.610;2023-08-31T06:20:10;96496.44;;;11.43;83.34
4199;BME280;2113;50.946;14.610;2023-08-31T06:22:38;96492.31;;;11.47;81.97
4199;BME280;2113;50.946;14.610;2023-08-31T06:25:07;96490.44;;;11.54;81.85
4199;BME280;2113;50.946;14.610;2023-08-31T06:27:40;96499.72;;;11.64;81.49
4199;BME280;2113;50.946;14.610;2023-08-31T06:30:09;96499.59;;;11.77;80.62
4199;BME280;2113;50.946;14.610;2023-08-31T06:32:39;96491.53;;;11.90;80.10
4199;BME280;2113;50.946;14.610;2023-08-31T06:35:08;96501.47;;;11.95;79.93
4199;BME280;2113;50.946;14.610;2023-08-31T06:37:36;96500.09;;;12.10;80.15
4199;BME280;2113;50.946;14.610;2023-08-31T06:40:06;96502.81;;;12.22;79.45
4199;BME280;2113;50.946;14.610;2023-08-31T06:42:36;96501.72;;;12.48;77.63
4199;BME280;2113;50.946;14.610;2023-08-31T06:45:07;96509.34;;;12.56;77.49
4199;BME280;2113;50.946;14.610;2023-08-31T06:47:36;96509.91;;;12.77;77.08
4199;BME280;2113;50.946;14.610;2023-08-31T06:50:05;96514.97;;;12.78;76.46
4199;BME280;2113;50.946;14.610;2023-08-31T06:52:34;96514.53;;;13.11;75.85
4199;BME280;2113;50.946;14.610;2023-08-31T06:55:04;96516.31;;;13.29;75.17
4199;BME280;2113;50.946;14.610;2023-08-31T06:57:33;96511.47;;;13.38;74.75
4199;BME280;2113;50.946;14.610;2023-08-31T07:00:05;96513.59;;;13.59;73.27
4199;BME280;2113;50.946;14.610;2023-08-31T07:02:39;96524.78;;;14.08;72.61
4199;BME280;2113;50.946;14.610;2023-08-31T07:08:33;96533.16;;;13.35;74.28
4199;BME280;2113;50.946;14.610;2023-08-31T07:09:22;96533.09;;;12.93;75.63
4199;BME280;2113;50.946;14.610;2023-08-31T07:14:42;96543.28;;;12.78;74.65
4199;BME280;2113;50.946;14.610;2023-08-31T07:17:11;96542.09;;;12.74;74.28
4199;BME280;2113;50.946;14.610;2023-08-31T07:19:41;96548.88;;;13.00;74.41
4199;BME280;2113;50.946;14.610;2023-08-31T07:22:09;96547.59;;;13.62;71.40
4199;BME280;2113;50.946;14.610;2023-08-31T07:24:39;96543.47;;;13.78;70.26
4199;BME280;2113;50.946;14.610;2023-08-31T07:27:07;96552.72;;;14.11;70.04
4199;BME280;2113;50.946;14.610;2023-08-31T07:29:35;96554.78;;;13.85;68.70
4199;BME280;2113;50.946;14.610;2023-08-31T07:32:04;96556.47;;;13.56;71.41
4199;BME280;2113;50.946;14.610;2023-08-31T07:34:33;96570.47;;;13.45;72.10
4199;BME280;2113;50.946;14.610;2023-08-31T07:37:03;96563.75;;;13.31;71.36
4199;BME280;2113;50.946;14.610;2023-08-31T07:39:33;96574.31;;;13.01;71.98
4199;BME280;2113;50.946;14.610;2023-08-31T07:42:01;96570.00;;;12.88;72.64
4199;BME280;2113;50.946;14.610;2023-08-31T07:44:31;96570.63;;;13.02;73.75
4199;BME280;2113;50.946;14.610;2023-08-31T07:47:00;96573.28;;;13.20;73.50
4199;BME280;2113;50.946;14.610;2023-08-31T07:49:29;96574.09;;;13.21;74.29
4199;BME280;2113;50.946;14.610;2023-08-31T07:51:57;96592.88;;;12.82;73.59
4199;BME280;2113;50.946;14.610;2023-08-31T07:54:28;96581.41;;;12.52;74.05
4199;BME280;2113;50.946;14.610;2023-08-31T07:56:56;96593.41;;;12.36;74.92
4199;BME280;2113;50.946;14.610;2023-08-31T07:59:24;96591.41;;;12.31;75.96
4199;BME280;2113;50.946;14.610;2023-08-31T08:01:53;96596.31;;;12.28;75.88
4199;BME280;2113;50.946;14.610;2023-08-31T08:04:21;96609.97;;;12.25;75.46
4199;BME280;2113;50.946;14.610;2023-08-31T08:06:50;96604.41;;;12.33;75.35
4199;BME280;2113;50.946;14.610;2023-08-31T08:09:19;96605.97;;;12.41;75.34
4199;BME280;2113;50.946;14.610;2023-08-31T08:11:48;96608.69;;;12.52;75.22
4199;BME280;2113;50.946;14.610;2023-08-31T08:14:18;96611.19;;;12.84;74.91
4199;BME280;2113;50.946;14.610;2023-08-31T08:16:46;96607.91;;;13.18;74.40
4199;BME280;2113;50.946;14.610;2023-08-31T08:19:20;96604.47;;;13.90;71.96
4199;BME280;2113;50.946;14.610;2023-08-31T08:21:49;96606.97;;;13.85;71.73
4199;BME280;2113;50.946;14.610;2023-08-31T08:24:18;96614.28;;;13.59;71.00
4199;BME280;2113;50.946;14.610;2023-08-31T08:26:46;96605.00;;;13.80;72.46
4199;BME280;2113;50.946;14.610;2023-08-31T08:29:16;96601.31;;;13.81;70.75
4199;BME280;2113;50.946;14.610;2023-08-31T08:31:45;96605.38;;;14.07;70.13
4199;BME280;2113;50.946;14.610;2023-08-31T08:34:13;96607.47;;;14.28;69.55
4199;BME280;2113;50.946;14.610;2023-08-31T08:36:41;96599.63;;;14.22;67.99
4199;BME280;2113;50.946;14.610;2023-08-31T08:39:10;96598.50;;;14.53;66.68
4199;BME280;2113;50.946;14.610;2023-08-31T08:41:39;96612.53;;;13.95;68.32
4199;BME280;2113;50.946;14.610;2023-08-31T08:44:09;96616.00;;;14.30;69.07
4199;BME280;2113;50.946;14.610;2023-08-31T08:46:39;96613.13;;;14.32;67.72
4199;BME280;2113;50.946;14.610;2023-08-31T08:49:09;96622.28;;;14.48;66.20
4199;BME280;2113;50.946;14.610;2023-08-31T08:51:38;96616.47;;;14.27;66.40
4199;BME280;2113;50.946;14.610;2023-08-31T08:54:07;96616.81;;;13.96;67.64
4199;BME280;2113;50.946;14.610;2023-08-31T08:56:36;96615.78;;;14.20;65.30
4199;BME280;2113;50.946;14.610;2023-08-31T08:59:05;96607.06;;;17.57;57.19
4199;BME280;2113;50.946;14.610;2023-08-31T09:01:34;96608.75;;;17.69;56.10
4199;BME280;2113;50.946;14.610;2023-08-31T09:04:06;96622.97;;;17.03;56.61
4199;BME280;2113;50.946;14.610;2023-08-31T09:06:34;96614.41;;;16.41;60.46
4199;BME280;2113;50.946;14.610;2023-08-31T09:09:04;96620.19;;;18.23;51.34
4199;BME280;2113;50.946;14.610;2023-08-31T09:11:33;96619.41;;;17.91;52.44
4199;BME280;2113;50.946;14.610;2023-08-31T09:14:14;96603.00;;;20.22;50.22
4199;BME280;2113;50.946;14.610;2023-08-31T09:16:44;96607.47;;;20.83;46.44
4199;BME280;2113;50.946;14.610;2023-08-31T09:19:23;96610.53;;;18.59;50.24
4199;BME280;2113;50.946;14.610;2023-08-31T09:21:55;96615.56;;;16.28;55.61
4199;BME280;2113;50.946;14.610;2023-08-31T09:24:23;96626.97;;;15.21;60.30
4199;BME280;2113;50.946;14.610;2023-08-31T09:26:55;96628.91;;;14.86;63.01
4199;BME280;2113;50.946;14.610;2023-08-31T09:29:23;96632.97;;;14.41;62.66
4199;BME280;2113;50.946;14.610;2023-08-31T09:31:52;96639.31;;;14.28;62.91
4199;BME280;2113;50.946;14.610;2023-08-31T09:34:32;96634.56;;;14.30;63.98
4199;BME280;2113;50.946;14.610;2023-08-31T09:37:04;96623.91;;;16.70;58.33
4199;BME280;2113;50.946;14.610;2023-08-31T09:39:35;96611.63;;;19.11;51.87
4199;BME280;2113;50.946;14.610;2023-08-31T09:42:04;96614.25;;;20.55;47.52
4199;BME280;2113;50.946;14.610;2023-08-31T09:44:33;96606.81;;;21.11;44.76
4199;BME280;2113;50.946;14.610;2023-08-31T09:47:01;96615.22;;;20.95;43.98
4199;BME280;2113;50.946;14.610;2023-08-31T09:49:33;96623.16;;;17.68;51.38
4199;BME280;2113;50.946;14.610;2023-08-31T09:52:03;96634.41;;;16.27;57.24
4199;BME280;2113;50.946;14.610;2023-08-31T09:54:35;96637.97;;;15.13;59.58
4199;BME280;2113;50.946;14.610;2023-08-31T09:57:04;96639.78;;;14.72;62.19
4199;BME280;2113;50.946;14.610;2023-08-31T09:59:33;96634.81;;;14.64;62.29
4199;BME280;2113;50.946;14.610;2023-08-31T10:02:02;96638.63;;;15.20;60.84
4199;BME280;2113;50.946;14.610;2023-08-31T10:04:34;96632.97;;;16.36;58.86
4199;BME280;2113;50.946;14.610;2023-08-31T10:07:04;96641.84;;;15.34;58.34
4199;BME280;2113;50.946;14.610;2023-08-31T10:09:35;96633.97;;;14.99;57.14
4199;BME280;2113;50.946;14.610;2023-08-31T10:12:04;96636.06;;;14.97;59.51
4199;BME280;2113;50.946;14.610;2023-08-31T10:14:33;96626.63;;;14.77;56.67
4199;BME280;2113;50.946;14.610;2023-08-31T10:17:07;96643.47;;;14.71;57.99
4199;BME280;2113;50.946;14.610;2023-08-31T10:19:38;96648.81;;;14.48;57.88
4199;BME280;2113;50.946;14.610;2023-08-31T10:22:07;96640.13;;;14.64;58.96
4199;BME280;2113;50.946;14.610;2023-08-31T10:24:56;96637.41;;;15.11;57.67
4199;BME280;2113;50.946;14.610;2023-08-31T10:27:25;96637.13;;;14.72;56.16
4199;BME280;2113;50.946;14.610;2023-08-31T10:29:54;96628.53;;;16.08;54.89
4199;BME280;2113;50.946;14.610;2023-08-31T10:32:22;96618.06;;;17.66;48.58
4199;BME280;2113;50.946;14.610;2023-08-31T10:35:08;96610.97;;;18.46;46.22
4199;BME280;2113;50.946;14.610;2023-08-31T10:37:39;96613.50;;;19.10;46.62
4199;BME280;2113;50.946;14.610;2023-08-31T10:40:09;96613.13;;;18.86;44.90
4199;BME280;2113;50.946;14.610;2023-08-31T10:42:42;96609.03;;;19.31;46.62
4199;BME280;2113;50.946;14.610;2023-08-31T10:45:12;96625.56;;;19.18;44.93
4199;BME280;2113;50.946;14.610;2023-08-31T10:47:41;96618.41;;;19.34;45.81
4199;BME280;2113;50.946;14.610;2023-08-31T10:50:18;96621.22;;;19.07;42.85
4199;BME280;2113;50.946;14.610;2023-08-31T10:52:47;96620.16;;;20.11;45.57
4199;BME280;2113;50.946;14.610;2023-08-31T10:55:16;96621.72;;;19.87;41.82
4199;BME280;2113;50.946;14.610;2023-08-31T10:57:45;96621.19;;;19.80;43.03
4199;BME280;2113;50.946;14.610;2023-08-31T11:00:14;96611.84;;;20.18;44.04
4199;BME280;2113;50.946;14.610;2023-08-31T11:03:04;96610.97;;;19.56;42.75
4199;BME280;2113;50.946;14.610;2023-08-31T11:05:34;96620.81;;;18.73;45.03
4199;BME280;2113;50.946;14.610;2023-08-31T11:08:03;96620.59;;;18.05;46.51
4199;BME280;2113;50.946;14.610;2023-08-31T11:10:31;96621.78;;;19.09;44.21
4199;BME280;2113;50.946;14.610;2023-08-31T11:13:00;96627.50;;;18.38;45.52
4199;BME280;2113;50.946;14.610;2023-08-31T11:15:30;96624.06;;;17.51;49.27
4199;BME280;2113;50.946;14.610;2023-08-31T11:17:59;96632.16;;;17.62;50.15
4199;BME280;2113;50.946;14.610;2023-08-31T11:20:30;96630.91;;;17.96;47.71
4199;BME280;2113;50.946;14.610;2023-08-31T11:22:59;96632.28;;;17.23;48.28
4199;BME280;2113;50.946;14.610;2023-08-31T11:25:30;96627.88;;;17.61;48.89
4199;BME280;2113;50.946;14.610;2023-08-31T11:28:00;96635.22;;;18.02;47.86
4199;BME280;2113;50.946;14.610;2023-08-31T11:30:32;96631.84;;;17.80;48.67
4199;BME280;2113;50.946;14.610;2023-08-31T11:33:02;96627.78;;;17.50;48.17
4199;BME280;2113;50.946;14.610;2023-08-31T11:35:35;96626.00;;;17.83;49.29
4199;BME280;2113;50.946;14.610;2023-08-31T11:38:04;96626.50;;;17.80;46.27
4199;BME280;2113;50.946;14.610;2023-08-31T11:40:35;96628.44;;;17.14;46.55
4199;BME280;2113;50.946;14.610;2023-08-31T11:43:05;96625.44;;;17.32;48.73
4199;BME280;2113;50.946;14.610;2023-08-31T11:46:12;96624.59;;;18.45;45.43
4199;BME280;2113;50.946;14.610;2023-08-31T11:48:43;96611.81;;;18.89;44.01
4199;BME280;2113;50.946;14.610;2023-08-31T11:56:14;96613.16;;;19.85;43.03
4199;BME280;2113;50.946;14.610;2023-08-31T11:59:51;96617.44;;;19.60;43.81
4199;BME280;2113;50.946;14.610;2023-08-31T12:02:21;96627.44;;;19.17;45.20
4199;BME280;2113;50.946;14.610;2023-08-31T12:04:53;96620.47;;;19.11;45.01
4199;BME280;2113;50.946;14.610;2023-08-31T12:07:29;96629.81;;;19.14;42.52
4199;BME280;2113;50.946;14.610;2023-08-31T12:10:02;96636.31;;;18.76;42.54
4199;BME280;2113;50.946;14.610;2023-08-31T12:12:33;96625.41;;;18.87;42.56
4199;BME280;2113;50.946;14.610;2023-08-31T12:15:02;96624.13;;;18.90;42.21
4199;BME280;2113;50.946;14.610;2023-08-31T12:17:37;96619.13;;;19.14;45.08
4199;BME280;2113;50.946;14.610;2023-08-31T12:20:07;96616.97;;;19.16;43.42
4199;BME280;2113;50.946;14.610;2023-08-31T12:22:37;96617.31;;;19.25;43.28
4199;BME280;2113;50.946;14.610;2023-08-31T12:25:06;96613.50;;;19.15;42.08
4199;BME280;2113;50.946;14.610;2023-08-31T12:27:36;96613.13;;;19.64;43.40
4199;BME280;2113;50.946;14.610;2023-08-31T12:30:06;96629.09;;;18.71;43.59
4199;BME280;2113;50.946;14.610;2023-08-31T12:32:37;96621.78;;;18.24;44.48
4199;BME280;2113;50.946;14.610;2023-08-31T12:35:07;96628.63;;;18.10;47.35
4199;BME280;2113;50.946;14.610;2023-08-31T12:37:37;96620.56;;;17.73;43.52
4199;BME280;2113;50.946;14.610;2023-08-31T12:40:07;96635.47;;;17.20;46.82
4199;BME280;2113;50.946;14.610;2023-08-31T12:42:38;96639.69;;;16.77;47.77
4199;BME280;2113;50.946;14.610;2023-08-31T12:45:07;96683.25;;;15.87;52.13
4199;BME280;2113;50.946;14.610;2023-08-31T12:47:36;96688.97;;;14.63;61.91
4199;BME280;2113;50.946;14.610;2023-08-31T12:50:06;96699.47;;;14.05;66.72
4199;BME280;2113;50.946;14.610;2023-08-31T12:52:34;96719.78;;;13.69;68.38
4199;BME280;2113;50.946;14.610;2023-08-31T12:55:03;96727.97;;;13.31;69.94
4199;BME280;2113;50.946;14.610;2023-08-31T12:57:32;96729.97;;;13.35;72.46
4199;BME280;2113;50.946;14.610;2023-08-31T13:00:02;96725.31;;;13.49;74.05
4199;BME280;2113;50.946;14.610;2023-08-31T13:02:32;96721.31;;;13.77;73.37
4199;BME280;2113;50.946;14.610;2023-08-31T13:05:02;96716.78;;;14.84;74.29
4199;BME280;2113;50.946;14.610;2023-08-31T13:07:32;96702.44;;;15.89;69.92
4199;BME280;2113;50.946;14.610;2023-08-31T13:10:01;96700.72;;;16.28;65.44
4199;BME280;2113;50.946;14.610;2023-08-31T13:12:31;96706.84;;;16.45;66.14
4199;BME280;2113;50.946;14.610;2023-08-31T13:15:02;96686.69;;;16.50;63.58
4199;BME280;2113;50.946;14.610;2023-08-31T13:17:31;96689.13;;;17.07;62.67
4199;BME280;2113;50.946;14.610;2023-08-31T13:20:00;96687.00;;;16.53;62.31
4199;BME280;2113;50.946;14.610;2023-08-31T13:22:30;96688.25;;;16.84;60.81
4199;BME280;2113;50.946;14.610;2023-08-31T13:24:58;96683.09;;;17.38;60.62
4199;BME280;2113;50.946;14.610;2023-08-31T13:27:27;96686.00;;;16.93;58.50
4199;BME280;2113;50.946;14.610;2023-08-31T13:29:56;96690.03;;;16.95;59.08
4199;BME280;2113;50.946;14.610;2023-08-31T13:32:26;96675.72;;;16.46;57.36
4199;BME280;2113;50.946;14.610;2023-08-31T13:34:54;96679.59;;;16.72;57.14
4199;BME280;2113;50.946;14.610;2023-08-31T13:37:23;96673.06;;;17.45;53.42
4199;BME280;2113;50.946;14.610;2023-08-31T13:39:52;96676.41;;;17.57;54.68